createdAt,value
2019-05-18T00:00:23.301Z,90.24
2019-05-18T00:01:58.534Z,90.35
2019-05-18T00:03:33.456Z,90.74
2019-05-18T00:05:09.337Z,90.74
2019-05-18T00:06:44.001Z,90.73
2019-05-18T00:08:19.213Z,90.92
2019-05-18T00:09:53.847Z,90.92
2019-05-18T00:11:29.070Z,90.84
2019-05-18T00:13:03.809Z,91.37
2019-05-18T00:14:39.979Z,91.29
2019-05-18T00:16:14.624Z,91.49
2019-05-18T00:17:49.857Z,91.25
2019-05-18T00:19:24.510Z,91.37
2019-05-18T00:21:00.804Z,90.94
2019-05-18T00:22:35.558Z,90.98
2019-05-18T00:24:10.786Z,90.95
2019-05-18T00:25:45.439Z,91.33
2019-05-18T00:27:20.713Z,91.29
2019-05-18T00:28:55.458Z,91.36
2019-05-18T00:30:30.662Z,91.22
2019-05-18T00:32:05.433Z,91.26
2019-05-18T00:33:40.644Z,91.34
2019-05-18T00:35:16.772Z,91.31
2019-05-18T00:36:52.161Z,91.60
2019-05-18T00:38:26.801Z,91.52
2019-05-18T00:40:02.071Z,91.45
2019-05-18T00:41:36.712Z,91.33
2019-05-18T00:43:11.979Z,91.22
2019-05-18T00:44:46.624Z,91.62
2019-05-18T00:46:21.832Z,91.53
2019-05-18T00:47:56.480Z,91.99
2019-05-18T00:49:31.756Z,91.74
2019-05-18T00:51:06.409Z,91.92
2019-05-18T00:52:41.635Z,92.03
2019-05-18T00:54:16.365Z,92.13
2019-05-18T00:55:51.617Z,92.22
2019-05-18T00:57:26.285Z,91.69
2019-05-18T00:59:01.488Z,91.88
2019-05-18T01:00:36.234Z,92.19
2019-05-18T01:02:11.803Z,92.46
2019-05-18T01:03:46.441Z,91.78
2019-05-18T01:05:21.637Z,91.47
2019-05-18T01:06:56.380Z,92.61
2019-05-18T01:08:31.909Z,92.20
2019-05-18T01:10:07.538Z,92.46
2019-05-18T01:11:42.754Z,92.29
2019-05-18T01:13:18.485Z,92.30
2019-05-18T01:14:53.694Z,92.78
2019-05-18T01:16:28.340Z,92.52
2019-05-18T01:18:03.629Z,92.40
2019-05-18T01:19:38.352Z,92.88
2019-05-18T01:21:15.904Z,92.79
2019-05-18T01:22:50.559Z,92.73
2019-05-18T01:24:25.776Z,92.61
2019-05-18T01:26:00.429Z,92.64
2019-05-18T01:27:35.709Z,92.76
2019-05-18T01:29:10.523Z,92.79
2019-05-18T01:30:46.259Z,93.03
2019-05-18T01:32:20.901Z,92.96
2019-05-18T01:33:56.090Z,92.92
2019-05-18T01:35:30.743Z,92.30
2019-05-18T01:37:06.022Z,92.61
2019-05-18T01:38:40.702Z,92.88
2019-05-18T01:40:16.856Z,92.75
2019-05-18T01:41:51.474Z,92.68
2019-05-18T01:43:26.682Z,92.57
2019-05-18T01:45:15.901Z,92.71
2019-05-18T01:46:40.596Z,92.90
2019-05-18T01:48:15.244Z,92.65
2019-05-18T01:49:50.468Z,92.55
2019-05-18T01:51:25.120Z,92.49
2019-05-18T01:53:00.309Z,92.71
2019-05-18T01:54:34.947Z,92.65
2019-05-18T01:56:10.159Z,93.15
2019-05-18T01:57:44.817Z,92.86
2019-05-18T01:59:19.997Z,93.36
2019-05-18T02:00:54.724Z,92.88
2019-05-18T02:02:30.032Z,92.76
2019-05-18T02:04:04.754Z,93.17
2019-05-18T02:05:40.007Z,93.01
2019-05-18T02:07:14.682Z,92.98
2019-05-18T02:08:49.993Z,92.70
2019-05-18T02:10:24.676Z,92.50
2019-05-18T02:11:59.949Z,92.72
2019-05-18T02:13:34.588Z,93.00
2019-05-18T02:15:10.278Z,92.87
2019-05-18T02:16:44.934Z,92.94
2019-05-18T02:18:28.670Z,93.23
2019-05-18T02:19:56.601Z,93.30
2019-05-18T02:21:31.805Z,92.03
2019-05-18T02:23:06.509Z,92.55
2019-05-18T02:24:41.722Z,92.70
2019-05-18T02:26:16.372Z,92.83
2019-05-18T02:27:51.592Z,92.99
2019-05-18T02:29:26.261Z,92.82
2019-05-18T02:31:01.468Z,93.06
2019-05-18T02:32:36.110Z,92.88
2019-05-18T02:34:12.950Z,93.20
2019-05-18T02:35:47.609Z,92.16
2019-05-18T02:37:22.826Z,92.59
2019-05-18T02:38:57.480Z,92.66
2019-05-18T02:40:32.660Z,93.08
2019-05-18T02:42:07.380Z,93.52
2019-05-18T02:43:42.701Z,93.49
2019-05-18T02:45:17.925Z,93.72
2019-05-18T02:46:53.175Z,93.84
2019-05-18T02:48:27.824Z,93.75
2019-05-18T02:50:03.036Z,93.92
2019-05-18T02:51:37.743Z,93.89
2019-05-18T02:53:12.956Z,92.77
2019-05-18T02:54:47.671Z,92.80
2019-05-18T02:56:22.862Z,92.76
2019-05-18T02:57:57.503Z,93.49
2019-05-18T02:59:32.701Z,93.08
2019-05-18T03:01:07.453Z,93.08
2019-05-18T03:02:42.673Z,93.17
2019-05-18T03:04:17.414Z,93.30
2019-05-18T03:05:52.600Z,93.65
2019-05-18T03:07:27.226Z,94.06
2019-05-18T03:09:02.484Z,93.61
2019-05-18T03:10:37.208Z,93.32
2019-05-18T03:12:12.405Z,93.36
2019-05-18T03:13:47.114Z,93.31
2019-05-18T03:15:22.427Z,93.06
2019-05-18T03:16:57.166Z,92.91
2019-05-18T03:18:32.467Z,93.20
2019-05-18T03:20:07.795Z,93.13
2019-05-18T03:21:43.065Z,93.17
2019-05-18T03:23:18.096Z,92.84
2019-05-18T03:24:53.316Z,92.85
2019-05-18T03:26:28.014Z,92.64
2019-05-18T03:28:03.255Z,92.50
2019-05-18T03:29:37.910Z,92.46
2019-05-18T03:31:13.110Z,92.93
2019-05-18T03:32:47.859Z,92.35
2019-05-18T03:34:23.128Z,91.66
2019-05-18T03:35:57.751Z,92.66
2019-05-18T03:37:32.952Z,92.84
2019-05-18T03:39:07.710Z,92.82
2019-05-18T03:40:42.926Z,92.21
2019-05-18T03:42:17.576Z,91.95
2019-05-18T03:43:52.873Z,91.97
2019-05-18T03:45:27.864Z,91.84
2019-05-18T03:47:03.057Z,91.99
2019-05-18T03:48:38.685Z,91.48
2019-05-18T03:50:14.042Z,91.63
2019-05-18T03:51:48.708Z,91.46
2019-05-18T03:53:23.894Z,91.88
2019-05-18T03:54:58.649Z,92.87
2019-05-18T03:56:33.846Z,92.54
2019-05-18T03:58:08.504Z,92.31
2019-05-18T03:59:43.805Z,92.25
2019-05-18T04:01:18.493Z,92.06
2019-05-18T04:02:53.727Z,91.36
2019-05-18T04:04:28.385Z,91.12
2019-05-18T04:06:03.726Z,90.41
2019-05-18T04:07:38.447Z,89.67
2019-05-18T04:09:13.692Z,89.34
2019-05-18T04:10:48.346Z,89.35
2019-05-18T04:12:23.626Z,88.93
2019-05-18T04:13:58.371Z,88.08
2019-05-18T04:15:33.637Z,88.26
2019-05-18T04:17:08.352Z,87.94
2019-05-18T04:18:43.553Z,87.21
2019-05-18T04:20:18.424Z,87.23
2019-05-18T04:21:54.603Z,87.33
2019-05-18T04:23:29.255Z,86.98
2019-05-18T04:25:04.561Z,87.03
2019-05-18T04:26:39.281Z,87.02
2019-05-18T04:28:14.500Z,87.24
2019-05-18T04:29:49.159Z,88.19
2019-05-18T04:31:24.400Z,86.54
2019-05-18T04:32:59.117Z,82.64
2019-05-18T04:34:34.324Z,80.43
2019-05-18T04:36:09.100Z,82.15
2019-05-18T04:37:44.336Z,81.78
2019-05-18T04:39:19.057Z,81.33
2019-05-18T04:40:54.276Z,81.33
2019-05-18T04:42:28.944Z,81.33
2019-05-18T04:44:04.258Z,80.26
2019-05-18T04:45:38.926Z,76.58
2019-05-18T04:47:14.162Z,67.62
2019-05-18T04:48:48.837Z,60.49
2019-05-18T04:50:24.061Z,56.86
2019-05-18T04:51:58.733Z,54.70
2019-05-18T04:53:33.941Z,54.70
2019-05-18T04:55:08.761Z,52.12
2019-05-18T04:56:44.168Z,53.38
2019-05-18T04:58:18.805Z,51.70
2019-05-18T04:59:54.021Z,49.65
2019-05-18T05:01:28.779Z,47.01
2019-05-18T05:03:04.043Z,47.78
2019-05-18T05:04:38.686Z,46.34
2019-05-18T05:06:14.903Z,51.21
2019-05-18T05:07:49.602Z,48.79
2019-05-18T05:09:24.907Z,44.32
2019-05-18T05:10:59.566Z,44.38
2019-05-18T05:12:34.794Z,44.70
2019-05-18T05:14:09.650Z,42.36
2019-05-18T05:15:44.889Z,42.20
2019-05-18T05:17:19.599Z,41.51
2019-05-18T05:18:54.815Z,47.51
2019-05-18T05:20:30.499Z,44.38
2019-05-18T05:22:05.779Z,45.01
2019-05-18T05:23:40.451Z,53.77
2019-05-18T05:25:15.733Z,54.82
2019-05-18T05:26:50.412Z,50.64
2019-05-18T05:28:25.659Z,54.16
2019-05-18T05:30:00.272Z,57.45
2019-05-18T05:31:35.533Z,55.55
2019-05-18T05:33:10.201Z,55.58
2019-05-18T05:34:45.442Z,55.89
2019-05-18T05:36:20.132Z,56.29
2019-05-18T05:37:55.381Z,52.56
2019-05-18T05:39:30.051Z,54.23
2019-05-18T05:41:05.414Z,49.91
2019-05-18T05:42:40.047Z,43.17
2019-05-18T05:44:15.373Z,35.67
2019-05-18T05:45:50.124Z,35.15
2019-05-18T05:47:25.376Z,33.37
2019-05-18T05:49:00.140Z,35.51
2019-05-18T05:50:36.700Z,33.23
2019-05-18T05:52:11.645Z,35.13
2019-05-18T05:53:46.956Z,35.81
2019-05-18T05:55:21.677Z,32.76
2019-05-18T05:56:56.978Z,31.71
2019-05-18T05:58:31.618Z,31.38
2019-05-18T06:00:07.103Z,30.55
2019-05-18T06:01:41.747Z,30.15
2019-05-18T06:03:16.962Z,33.41
2019-05-18T06:04:51.606Z,31.52
2019-05-18T06:06:26.833Z,32.76
2019-05-18T06:08:01.493Z,30.40
2019-05-18T06:09:36.713Z,28.64
2019-05-18T06:11:11.377Z,30.79
2019-05-18T06:12:46.605Z,31.50
2019-05-18T06:14:21.257Z,28.16
2019-05-18T06:15:56.470Z,27.91
2019-05-18T06:17:31.138Z,26.63
2019-05-18T06:19:08.003Z,26.35
2019-05-18T06:20:51.172Z,27.40
2019-05-18T06:22:19.656Z,26.51
2019-05-18T06:23:54.944Z,24.80
2019-05-18T06:25:34.194Z,24.54
2019-05-18T06:27:06.498Z,24.63
2019-05-18T06:28:41.740Z,24.70
2019-05-18T06:30:16.613Z,25.71
2019-05-18T06:31:51.948Z,24.54
2019-05-18T06:33:26.596Z,24.06
2019-05-18T06:35:01.807Z,25.70
2019-05-18T06:36:37.662Z,27.33
2019-05-18T06:38:12.892Z,25.04
2019-05-18T06:39:47.557Z,24.85
2019-05-18T06:41:22.765Z,25.56
2019-05-18T06:42:57.434Z,27.15
2019-05-18T06:44:32.669Z,27.69
2019-05-18T06:46:07.341Z,25.93
2019-05-18T06:47:42.554Z,25.37
2019-05-18T06:49:17.202Z,25.34
2019-05-18T06:51:06.369Z,24.49
2019-05-18T06:52:28.824Z,25.57
2019-05-18T06:54:04.074Z,23.69
2019-05-18T06:55:39.128Z,27.16
2019-05-18T06:57:14.717Z,23.86
2019-05-18T06:58:50.154Z,24.39
2019-05-18T07:00:25.552Z,25.26
2019-05-18T07:02:06.474Z,25.80
2019-05-18T07:03:44.956Z,24.23
2019-05-18T07:05:18.131Z,22.94
2019-05-18T07:06:53.468Z,26.56
2019-05-18T07:08:29.188Z,22.16
2019-05-18T07:10:04.582Z,23.92
2019-05-18T07:11:39.239Z,23.00
2019-05-18T07:13:14.490Z,23.71
2019-05-18T07:14:49.136Z,21.71
2019-05-18T07:16:24.359Z,23.81
2019-05-18T07:17:59.091Z,24.29
2019-05-18T07:19:34.311Z,22.27
2019-05-18T07:21:21.291Z,23.24
2019-05-18T07:22:46.453Z,23.83
2019-05-18T07:24:21.241Z,24.23
2019-05-18T07:25:56.447Z,22.22
2019-05-18T07:27:31.209Z,25.50
2019-05-18T07:29:06.541Z,21.99
2019-05-18T07:30:41.169Z,22.86
2019-05-18T07:32:16.436Z,26.15
2019-05-18T07:33:51.107Z,24.04
2019-05-18T07:35:26.494Z,24.19
2019-05-18T07:37:01.162Z,22.73
2019-05-18T07:38:36.405Z,21.84
2019-05-18T07:40:11.524Z,21.75
2019-05-18T07:41:47.344Z,22.60
2019-05-18T07:43:22.177Z,23.40
2019-05-18T07:44:57.400Z,24.23
2019-05-18T07:46:32.048Z,24.20
2019-05-18T07:48:07.262Z,22.74
2019-05-18T07:49:41.933Z,24.15
2019-05-18T07:51:18.124Z,24.85
2019-05-18T07:52:53.889Z,25.07
2019-05-18T07:54:29.376Z,22.92
2019-05-18T07:56:04.103Z,22.06
2019-05-18T07:57:39.361Z,23.03
2019-05-18T07:59:14.071Z,26.24
2019-05-18T08:00:49.289Z,31.96
2019-05-18T08:02:23.956Z,31.17
2019-05-18T08:04:01.142Z,29.54
2019-05-18T08:05:35.812Z,26.74
2019-05-18T08:07:11.026Z,26.60
2019-05-18T08:08:45.677Z,24.68
2019-05-18T08:10:47.325Z,22.89
2019-05-18T08:12:22.583Z,23.00
2019-05-18T08:13:57.230Z,22.48
2019-05-18T08:15:32.446Z,25.30
2019-05-18T08:17:07.115Z,22.87
2019-05-18T08:18:42.316Z,26.05
2019-05-18T08:20:17.044Z,25.99
2019-05-18T08:21:53.715Z,25.22
2019-05-18T08:23:28.520Z,30.25
2019-05-18T08:25:03.814Z,30.03
2019-05-18T08:26:38.468Z,23.85
2019-05-18T08:28:13.686Z,25.47
2019-05-18T08:29:48.375Z,24.81
2019-05-18T08:31:23.573Z,26.69
2019-05-18T08:32:59.336Z,28.50
2019-05-18T08:34:34.551Z,26.50
2019-05-18T08:36:09.503Z,25.95
2019-05-18T08:37:44.708Z,28.66
2019-05-18T08:39:19.353Z,28.89
2019-05-18T08:40:54.631Z,28.67
2019-05-18T08:42:29.382Z,26.98
2019-05-18T08:44:04.675Z,26.20
2019-05-18T08:45:39.340Z,35.05
2019-05-18T08:47:14.567Z,34.00
2019-05-18T08:48:49.213Z,34.17
2019-05-18T08:50:24.397Z,34.59
2019-05-18T08:52:07.792Z,34.84
2019-05-18T08:53:36.227Z,37.30
2019-05-18T08:55:11.136Z,37.18
2019-05-18T08:56:46.359Z,36.18
2019-05-18T08:58:20.991Z,36.05
2019-05-18T08:59:56.183Z,39.60
2019-05-18T09:01:30.831Z,38.74
2019-05-18T09:03:06.021Z,36.70
2019-05-18T09:04:40.640Z,34.85
2019-05-18T09:06:15.846Z,35.33
2019-05-18T09:07:50.509Z,37.69
2019-05-18T09:09:25.808Z,39.13
2019-05-18T09:11:00.563Z,38.82
2019-05-18T09:12:35.892Z,40.21
2019-05-18T09:14:10.543Z,36.99
2019-05-18T09:15:45.999Z,37.87
2019-05-18T09:17:20.655Z,38.95
2019-05-18T09:18:55.861Z,36.13
2019-05-18T09:20:30.529Z,40.85
2019-05-18T09:22:05.880Z,39.93
2019-05-18T09:23:40.542Z,39.40
2019-05-18T09:25:16.014Z,39.32
2019-05-18T09:26:50.661Z,38.46
2019-05-18T09:28:25.968Z,37.40
2019-05-18T09:30:00.600Z,35.95
2019-05-18T09:31:35.807Z,37.06
2019-05-18T09:33:10.553Z,39.19
2019-05-18T09:34:45.816Z,35.32
2019-05-18T09:36:20.459Z,39.59
2019-05-18T09:37:55.669Z,38.22
2019-05-18T09:39:30.375Z,36.41
2019-05-18T09:41:05.662Z,37.06
2019-05-18T09:42:40.373Z,35.83
2019-05-18T09:44:15.604Z,39.15
2019-05-18T09:45:50.245Z,35.26
2019-05-18T09:47:25.444Z,38.54
2019-05-18T09:49:00.121Z,38.10
2019-05-18T09:50:35.412Z,36.81
2019-05-18T09:52:10.125Z,34.66
2019-05-18T09:53:51.586Z,36.38
2019-05-18T09:55:21.800Z,37.13
2019-05-18T09:56:57.007Z,37.08
2019-05-18T09:58:31.741Z,36.43
2019-05-18T10:00:09.017Z,36.88
2019-05-18T10:01:43.669Z,37.54
2019-05-18T10:03:18.909Z,37.14
2019-05-18T10:04:53.522Z,38.20
2019-05-18T10:06:31.364Z,38.34
2019-05-18T10:08:05.098Z,38.26
2019-05-18T10:09:40.290Z,37.89
2019-05-18T10:11:15.120Z,35.80
2019-05-18T10:12:50.386Z,34.65
2019-05-18T10:14:25.018Z,34.78
2019-05-18T10:16:00.287Z,34.80
2019-05-18T10:17:35.011Z,37.19
2019-05-18T10:19:11.341Z,35.02
2019-05-18T10:20:46.007Z,35.70
2019-05-18T10:22:21.261Z,34.66
2019-05-18T10:23:55.897Z,37.02
2019-05-18T10:25:31.116Z,36.67
2019-05-18T10:27:05.780Z,38.75
2019-05-18T10:28:40.989Z,39.63
2019-05-18T10:30:15.930Z,38.26
2019-05-18T10:31:51.231Z,38.96
2019-05-18T10:33:25.890Z,38.36
2019-05-18T10:35:01.112Z,40.15
2019-05-18T10:36:36.057Z,38.42
2019-05-18T10:38:11.353Z,37.41
2019-05-18T10:39:45.999Z,37.28
2019-05-18T10:41:21.259Z,39.49
2019-05-18T10:42:55.880Z,39.23
2019-05-18T10:44:31.083Z,39.01
2019-05-18T10:46:05.784Z,37.83
2019-05-18T10:47:41.021Z,38.90
2019-05-18T10:49:15.733Z,38.60
2019-05-18T10:50:50.962Z,37.83
2019-05-18T10:52:25.617Z,37.57
2019-05-18T10:54:00.796Z,38.24
2019-05-18T10:55:35.545Z,38.51
2019-05-18T10:57:10.846Z,39.49
2019-05-18T10:58:45.516Z,37.69
2019-05-18T11:00:21.127Z,37.94
2019-05-18T11:01:55.849Z,39.79
2019-05-18T11:03:31.033Z,38.87
2019-05-18T11:05:05.944Z,36.77
2019-05-18T11:06:41.141Z,36.88
2019-05-18T11:08:15.785Z,37.98
2019-05-18T11:09:50.993Z,36.94
2019-05-18T11:12:06.183Z,39.47
2019-05-18T11:13:41.384Z,38.83
2019-05-18T11:15:16.512Z,39.59
2019-05-18T11:16:51.747Z,39.46
2019-05-18T11:18:26.394Z,40.67
2019-05-18T11:20:01.582Z,40.85
2019-05-18T11:21:36.245Z,39.54
2019-05-18T11:23:11.523Z,40.75
2019-05-18T11:24:46.219Z,40.01
2019-05-18T11:26:21.425Z,40.40
2019-05-18T11:27:56.070Z,38.65
2019-05-18T11:29:31.312Z,40.09
2019-05-18T11:31:06.012Z,39.99
2019-05-18T11:32:41.305Z,39.74
2019-05-18T11:34:15.948Z,39.03
2019-05-18T11:35:52.205Z,38.20
2019-05-18T11:37:26.861Z,38.30
2019-05-18T11:39:02.086Z,38.70
2019-05-18T11:40:37.803Z,38.14
2019-05-18T11:42:13.076Z,37.97
2019-05-18T11:43:47.721Z,37.66
2019-05-18T11:45:23.411Z,37.87
2019-05-18T11:46:58.063Z,38.25
2019-05-18T11:48:33.265Z,38.72
2019-05-18T11:50:08.511Z,38.74
2019-05-18T11:51:43.788Z,39.08
2019-05-18T11:53:18.527Z,39.14
2019-05-18T11:54:53.788Z,37.94
2019-05-18T11:56:28.416Z,36.94
2019-05-18T11:58:03.609Z,37.34
2019-05-18T11:59:38.255Z,36.43
2019-05-18T12:01:14.623Z,35.03
2019-05-18T12:02:50.329Z,36.01
2019-05-18T12:04:25.520Z,37.61
2019-05-18T12:06:00.210Z,37.94
2019-05-18T12:07:35.387Z,38.18
2019-05-18T12:09:10.049Z,37.94
2019-05-18T12:10:45.341Z,36.50
2019-05-18T12:12:19.985Z,35.61
2019-05-18T12:13:55.173Z,35.91
2019-05-18T12:15:29.907Z,33.98
2019-05-18T12:17:05.123Z,33.06
2019-05-18T12:18:39.754Z,32.39
2019-05-18T12:20:15.600Z,31.66
2019-05-18T12:21:50.300Z,32.20
2019-05-18T12:23:25.538Z,32.61
2019-05-18T12:25:01.265Z,31.75
2019-05-18T12:26:36.542Z,32.18
2019-05-18T12:28:11.206Z,33.92
2019-05-18T12:29:46.394Z,36.32
2019-05-18T12:31:21.037Z,36.51
2019-05-18T12:32:56.250Z,36.88
2019-05-18T12:34:30.924Z,36.87
2019-05-18T12:36:07.402Z,36.75
2019-05-18T12:37:42.381Z,37.96
2019-05-18T12:39:17.702Z,38.11
2019-05-18T12:40:52.345Z,39.13
2019-05-18T12:42:27.663Z,37.85
2019-05-18T12:44:02.328Z,37.88
2019-05-18T12:45:37.578Z,37.76
2019-05-18T12:47:14.308Z,37.91
2019-05-18T12:48:49.189Z,38.75
2019-05-18T12:50:24.541Z,38.85
2019-05-18T12:51:59.787Z,39.09
2019-05-18T12:53:34.462Z,39.18
2019-05-18T12:55:10.303Z,39.27
2019-05-18T12:56:44.951Z,39.43
2019-05-18T12:58:20.162Z,39.34
2019-05-18T12:59:54.847Z,39.54
2019-05-18T13:01:30.131Z,39.74
2019-05-18T13:03:04.834Z,38.89
2019-05-18T13:04:42.007Z,39.09
2019-05-18T13:06:17.207Z,38.31
2019-05-18T13:07:52.488Z,37.54
2019-05-18T13:09:27.170Z,36.14
2019-05-18T13:11:02.430Z,36.92
2019-05-18T13:12:37.144Z,39.20
2019-05-18T13:14:12.358Z,40.28
2019-05-18T13:15:47.023Z,39.43
2019-05-18T13:17:22.244Z,39.79
2019-05-18T13:18:56.894Z,40.76
2019-05-18T13:20:32.179Z,40.61
2019-05-18T13:22:06.958Z,40.97
2019-05-18T13:23:42.232Z,41.19
2019-05-18T13:25:17.060Z,41.14
2019-05-18T13:26:52.284Z,40.36
2019-05-18T13:28:27.093Z,39.89
2019-05-18T13:30:02.443Z,39.74
2019-05-18T13:31:37.183Z,40.99
2019-05-18T13:33:12.381Z,41.41
2019-05-18T13:34:47.012Z,43.31
2019-05-18T13:36:22.220Z,42.90
2019-05-18T13:37:56.969Z,42.94
2019-05-18T13:39:32.225Z,43.55
2019-05-18T13:41:06.922Z,43.60
2019-05-18T13:42:42.152Z,45.17
2019-05-18T13:44:16.785Z,44.92
2019-05-18T13:45:52.029Z,43.94
2019-05-18T13:47:26.699Z,44.21
2019-05-18T13:49:01.981Z,43.90
2019-05-18T13:50:36.623Z,42.85
2019-05-18T13:52:11.850Z,42.04
2019-05-18T13:53:46.464Z,41.98
2019-05-18T13:55:21.778Z,42.15
2019-05-18T13:56:56.443Z,42.78
2019-05-18T13:58:32.625Z,42.07
2019-05-18T14:00:08.036Z,42.97
2019-05-18T14:01:43.655Z,43.08
2019-05-18T14:03:18.372Z,43.69
2019-05-18T14:04:53.558Z,43.97
2019-05-18T14:06:28.286Z,44.23
2019-05-18T14:08:03.535Z,44.44
2019-05-18T14:09:38.235Z,43.80
2019-05-18T14:11:13.511Z,44.06
2019-05-18T14:12:48.281Z,43.80
2019-05-18T14:14:38.927Z,44.27
2019-05-18T14:16:13.675Z,44.24
2019-05-18T14:17:48.931Z,43.77
2019-05-18T14:19:23.689Z,43.69
2019-05-18T14:20:58.865Z,44.28
2019-05-18T14:22:33.508Z,44.21
2019-05-18T14:24:08.704Z,43.56
2019-05-18T14:25:46.039Z,44.13
2019-05-18T14:27:20.265Z,44.35
2019-05-18T14:28:54.918Z,44.86
2019-05-18T14:30:30.133Z,44.53
2019-05-18T14:32:04.952Z,43.93
2019-05-18T14:33:40.152Z,43.73
2019-05-18T14:35:14.970Z,43.53
2019-05-18T14:36:50.178Z,43.17
2019-05-18T14:38:25.905Z,42.27
2019-05-18T14:40:01.143Z,41.91
2019-05-18T14:41:35.847Z,42.02
2019-05-18T14:43:11.070Z,42.10
2019-05-18T14:44:46.679Z,41.34
2019-05-18T14:46:21.985Z,41.06
2019-05-18T14:47:56.604Z,40.97
2019-05-18T14:49:31.807Z,41.47
2019-05-18T14:51:06.479Z,41.93
2019-05-18T14:52:41.702Z,42.14
2019-05-18T14:54:16.401Z,41.86
2019-05-18T14:55:51.629Z,41.46
2019-05-18T14:57:26.411Z,41.60
2019-05-18T14:59:01.613Z,42.10
2019-05-18T15:00:36.350Z,43.20
2019-05-18T15:02:11.555Z,43.84
2019-05-18T15:03:46.215Z,44.40
2019-05-18T15:05:23.089Z,44.46
2019-05-18T15:06:57.778Z,44.38
2019-05-18T15:08:33.042Z,45.01
2019-05-18T15:10:08.206Z,45.33
2019-05-18T15:11:43.494Z,45.46
2019-05-18T15:13:18.243Z,45.22
2019-05-18T15:14:53.488Z,44.92
2019-05-18T15:16:28.206Z,44.95
2019-05-18T15:18:03.461Z,44.63
2019-05-18T15:19:38.162Z,44.15
2019-05-18T15:21:13.404Z,43.65
2019-05-18T15:22:48.122Z,43.37
2019-05-18T15:24:23.399Z,43.60
2019-05-18T15:25:58.071Z,43.80
2019-05-18T15:27:33.294Z,44.05
2019-05-18T15:29:08.014Z,43.65
2019-05-18T15:30:43.213Z,43.31
2019-05-18T15:32:17.920Z,43.01
2019-05-18T15:33:53.128Z,42.98
2019-05-18T15:35:27.865Z,42.42
2019-05-18T15:37:03.206Z,42.21
2019-05-18T15:38:37.942Z,42.96
2019-05-18T15:40:13.374Z,42.95
2019-05-18T15:41:48.099Z,42.95
2019-05-18T15:43:23.292Z,43.46
2019-05-18T15:44:58.040Z,43.38
2019-05-18T15:46:33.293Z,43.65
2019-05-18T15:48:08.013Z,43.80
2019-05-18T15:49:43.223Z,43.99
2019-05-18T15:51:18.244Z,44.26
2019-05-18T15:52:53.929Z,43.91
2019-05-18T15:54:28.664Z,43.93
2019-05-18T15:56:06.249Z,44.54
2019-05-18T15:57:40.325Z,44.80
2019-05-18T15:59:15.614Z,45.16
2019-05-18T16:00:50.262Z,45.58
2019-05-18T16:02:26.465Z,45.36
2019-05-18T16:04:01.107Z,44.26
2019-05-18T16:05:36.338Z,43.37
2019-05-18T16:07:11.066Z,43.02
2019-05-18T16:08:47.338Z,42.33
2019-05-18T16:10:22.052Z,41.78
2019-05-18T16:11:57.254Z,40.88
2019-05-18T16:13:32.269Z,41.47
2019-05-18T16:15:08.080Z,42.17
2019-05-18T16:16:42.739Z,42.00
2019-05-18T16:18:19.048Z,42.33
2019-05-18T16:19:53.789Z,42.50
2019-05-18T16:21:29.991Z,42.57
2019-05-18T16:23:04.925Z,42.92
2019-05-18T16:24:40.216Z,43.16
2019-05-18T16:26:21.452Z,43.44
2019-05-18T16:27:51.857Z,43.39
2019-05-18T16:29:26.552Z,43.49
2019-05-18T16:31:01.815Z,43.68
2019-05-18T16:32:36.490Z,43.49
2019-05-18T16:34:11.726Z,43.81
2019-05-18T16:35:46.394Z,43.74
2019-05-18T16:37:22.788Z,43.86
2019-05-18T16:38:57.500Z,43.97
2019-05-18T16:40:32.708Z,43.98
2019-05-18T16:42:07.624Z,44.24
2019-05-18T16:43:42.911Z,44.25
2019-05-18T16:45:17.932Z,44.39
2019-05-18T16:46:53.152Z,44.46
2019-05-18T16:48:27.792Z,43.95
2019-05-18T16:50:03.020Z,43.93
2019-05-18T16:51:37.739Z,43.65
2019-05-18T16:53:13.323Z,43.74
2019-05-18T16:54:47.957Z,43.37
2019-05-18T16:56:34.582Z,43.52
2019-05-18T16:57:59.518Z,43.46
2019-05-18T16:59:34.743Z,43.58
2019-05-18T17:01:09.449Z,43.45
2019-05-18T17:02:44.775Z,43.34
2019-05-18T17:04:19.479Z,43.70
2019-05-18T17:05:54.663Z,43.69
2019-05-18T17:07:29.406Z,43.82
2019-05-18T17:09:05.484Z,43.88
2019-05-18T17:10:40.138Z,44.11
2019-05-18T17:12:15.358Z,44.24
2019-05-18T17:13:50.049Z,44.56
2019-05-18T17:15:25.327Z,44.02
2019-05-18T17:17:00.025Z,44.17
2019-05-18T17:18:35.245Z,44.62
2019-05-18T17:20:10.536Z,44.44
2019-05-18T17:21:45.855Z,44.96
2019-05-18T17:23:20.521Z,45.47
2019-05-18T17:24:56.694Z,46.32
2019-05-18T17:26:31.350Z,46.25
2019-05-18T17:28:06.610Z,45.92
2019-05-18T17:29:41.342Z,46.41
2019-05-18T17:31:16.532Z,46.39
2019-05-18T17:32:51.182Z,46.10
2019-05-18T17:34:26.416Z,46.14
2019-05-18T17:36:01.055Z,46.20
2019-05-18T17:37:36.240Z,46.31
2019-05-18T17:39:10.967Z,46.56
2019-05-18T17:40:46.206Z,46.51
2019-05-18T17:42:20.835Z,46.40
2019-05-18T17:43:56.143Z,46.25
2019-05-18T17:45:31.013Z,46.64
2019-05-18T17:47:06.690Z,46.95
2019-05-18T17:48:41.350Z,46.78
2019-05-18T17:50:16.721Z,47.14
2019-05-18T17:51:51.553Z,47.64
2019-05-18T17:53:26.818Z,46.92
2019-05-18T17:55:01.727Z,47.53
2019-05-18T17:56:36.935Z,47.42
2019-05-18T17:58:11.589Z,47.51
2019-05-18T17:59:49.518Z,46.97
2019-05-18T18:01:23.271Z,46.83
2019-05-18T18:02:58.499Z,47.00
2019-05-18T18:04:33.149Z,47.36
2019-05-18T18:06:08.542Z,47.25
2019-05-18T18:07:43.353Z,46.87
2019-05-18T18:09:18.687Z,47.21
2019-05-18T18:10:53.530Z,47.47
2019-05-18T18:12:30.015Z,47.84
2019-05-18T18:14:05.435Z,47.76
2019-05-18T18:15:42.455Z,48.35
2019-05-18T18:17:18.378Z,48.23
2019-05-18T18:18:55.916Z,48.77
2019-05-18T18:20:32.259Z,48.77
2019-05-18T18:22:08.240Z,48.90
2019-05-18T18:23:42.990Z,49.10
2019-05-18T18:25:18.325Z,49.57
2019-05-18T18:26:52.959Z,49.71
2019-05-18T18:28:29.237Z,49.61
2019-05-18T18:30:04.377Z,50.32
2019-05-18T18:31:39.808Z,49.82
2019-05-18T18:33:15.775Z,49.87
2019-05-18T18:34:51.035Z,49.73
2019-05-18T18:36:25.868Z,50.42
2019-05-18T18:38:01.099Z,50.92
2019-05-18T18:39:36.806Z,50.70
2019-05-18T18:41:13.161Z,51.17
2019-05-18T18:42:48.136Z,50.94
2019-05-18T18:44:23.513Z,50.94
2019-05-18T18:45:58.173Z,51.42
2019-05-18T18:47:33.360Z,51.73
2019-05-18T18:49:08.012Z,51.94
2019-05-18T18:50:43.189Z,51.58
2019-05-18T18:52:17.810Z,51.89
2019-05-18T18:53:53.016Z,52.47
2019-05-18T18:55:27.658Z,53.18
2019-05-18T18:57:02.847Z,52.94
2019-05-18T18:58:37.501Z,53.24
2019-05-18T19:00:13.236Z,53.63
2019-05-18T19:01:47.900Z,53.55
2019-05-18T19:03:23.093Z,53.83
2019-05-18T19:04:57.759Z,54.71
2019-05-18T19:06:33.037Z,54.89
2019-05-18T19:08:07.718Z,54.80
2019-05-18T19:09:42.894Z,55.09
2019-05-18T19:11:17.647Z,55.29
2019-05-18T19:12:52.903Z,55.14
2019-05-18T19:14:27.618Z,55.29
2019-05-18T19:16:04.501Z,55.56
2019-05-18T19:17:39.137Z,55.96
2019-05-18T19:19:14.488Z,56.12
2019-05-18T19:20:49.293Z,56.41
2019-05-18T19:22:24.517Z,56.67
2019-05-18T19:23:59.270Z,59.61
2019-05-18T19:25:34.527Z,59.81
2019-05-18T19:27:09.246Z,58.39
2019-05-18T19:28:44.549Z,58.30
2019-05-18T19:30:19.401Z,59.46
2019-05-18T19:31:54.939Z,59.19
2019-05-18T19:33:29.693Z,59.52
2019-05-18T19:35:05.443Z,60.04
2019-05-18T19:36:40.308Z,60.72
2019-05-18T19:38:15.634Z,60.88
2019-05-18T19:39:50.363Z,60.88
2019-05-18T19:41:25.661Z,61.97
2019-05-18T19:43:00.324Z,61.41
2019-05-18T19:44:35.518Z,61.98
2019-05-18T19:46:10.249Z,62.36
2019-05-18T19:47:45.520Z,63.31
2019-05-18T19:49:20.260Z,63.06
2019-05-18T19:50:55.528Z,63.06
2019-05-18T19:52:30.186Z,63.85
2019-05-18T19:54:05.507Z,62.69
2019-05-18T19:55:40.210Z,63.57
2019-05-18T19:57:16.522Z,63.31
2019-05-18T19:58:51.205Z,63.63
2019-05-18T20:00:26.782Z,65.18
2019-05-18T20:02:02.127Z,64.77
2019-05-18T20:03:38.545Z,64.79
2019-05-18T20:05:13.395Z,65.52
2019-05-18T20:06:48.615Z,65.52
2019-05-18T20:08:23.257Z,66.09
2019-05-18T20:09:58.471Z,66.29
2019-05-18T20:11:33.123Z,66.46
2019-05-18T20:13:08.323Z,66.79
2019-05-18T20:14:44.042Z,66.84
2019-05-18T20:16:19.268Z,67.01
2019-05-18T20:17:53.924Z,67.62
2019-05-18T20:19:38.812Z,67.60
2019-05-18T20:21:05.553Z,67.95
2019-05-18T20:22:40.761Z,68.46
2019-05-18T20:24:15.469Z,69.13
2019-05-18T20:25:50.759Z,69.13